Time;durP1;ratioP1;P1;durP2;ratioP2;P2;SDS_P1;SDS_P2;PMS_P1;PMS_P2;Temp;Humidity;BMP_temperature;BMP_pressure;BME280_temperature;BME280_humidity;BME280_pressure;Samples;Min_cycle;Max_cycle;Signal;HPM_P1;HPM_P2
2021/06/01 00:01:26;;;;;;;5.57;4.50;;;12.70;99.90;;;;;;4992420;28;20502;-67
2021/06/01 00:03:53;;;;;;;6.03;5.53;;;12.60;99.90;;;;;;4992325;28;20186;-68
2021/06/01 00:06:19;;;;;;;6.10;5.50;;;12.60;99.90;;;;;;4992367;28;20476;-67
2021/06/01 00:08:44;;;;;;;6.73;6.23;;;12.50;99.90;;;;;;4991884;28;20427;-67
2021/06/01 00:11:11;;;;;;;5.13;4.63;;;12.50;99.90;;;;;;4991903;28;20610;-68
2021/06/01 00:13:38;;;;;;;5.90;5.37;;;12.40;99.90;;;;;;4992290;28;20175;-67
2021/06/01 00:16:05;;;;;;;6.07;5.47;;;12.30;99.90;;;;;;4991984;28;20430;-67
2021/06/01 00:18:31;;;;;;;6.40;5.23;;;12.30;99.90;;;;;;4991574;28;20924;-67
2021/06/01 00:20:56;;;;;;;5.80;5.20;;;12.20;99.90;;;;;;4991697;28;20433;-68
2021/06/01 00:23:22;;;;;;;8.47;5.57;;;12.20;99.90;;;;;;4991820;28;20422;-67
2021/06/01 00:25:48;;;;;;;7.77;5.60;;;12.10;99.90;;;;;;4992002;28;20636;-67
2021/06/01 00:28:14;;;;;;;6.17;5.70;;;12.10;99.90;;;;;;5001481;28;20821;-67
2021/06/01 00:30:42;;;;;;;5.80;5.20;;;12.00;99.90;;;;;;5011080;28;20210;-67
2021/06/01 00:33:09;;;;;;;5.43;4.93;;;12.00;99.90;;;;;;5012002;28;20171;-67
2021/06/01 00:35:37;;;;;;;5.10;4.70;;;12.00;99.90;;;;;;5011390;28;20421;-67
2021/06/01 00:38:03;;;;;;;4.77;4.40;;;12.00;99.90;;;;;;5011136;28;20495;-67
2021/06/01 00:40:29;;;;;;;7.50;5.90;;;12.00;99.90;;;;;;5011106;28;20436;-67
2021/06/01 00:42:55;;;;;;;6.10;5.60;;;12.10;99.90;;;;;;5011324;28;20504;-68
2021/06/01 00:45:23;;;;;;;5.20;4.50;;;12.10;99.90;;;;;;5011308;28;20542;-67
2021/06/01 00:47:49;;;;;;;4.97;4.47;;;12.00;99.90;;;;;;5011112;28;20474;-68
2021/06/01 00:50:15;;;;;;;5.77;5.13;;;12.00;99.90;;;;;;5011211;28;20814;-68
2021/06/01 00:52:41;;;;;;;6.83;5.20;;;12.00;99.90;;;;;;5010981;28;20198;-68
2021/06/01 00:55:08;;;;;;;5.50;5.00;;;11.80;99.90;;;;;;5000775;28;20462;-68
2021/06/01 00:57:34;;;;;;;6.10;5.50;;;11.70;99.90;;;;;;4991595;28;20579;-68
2021/06/01 00:59:59;;;;;;;5.93;5.40;;;11.60;99.90;;;;;;4991297;28;20422;-68
2021/06/01 01:02:26;;;;;;;4.90;4.50;;;11.60;99.90;;;;;;4991817;28;20509;-67
2021/06/01 01:04:52;;;;;;;5.77;5.23;;;11.60;99.90;;;;;;4991507;28;20172;-67
2021/06/01 01:07:32;;;;;;;5.83;5.33;;;11.60;99.90;;;;;;4991191;28;20442;-67
2021/06/01 01:09:58;;;;;;;6.43;5.83;;;11.50;99.90;;;;;;4991115;28;20469;-68
2021/06/01 01:12:37;;;;;;;7.57;5.97;;;11.40;99.90;;;;;;4991306;28;20423;-67
2021/06/01 01:15:05;;;;;;;5.73;5.33;;;11.40;99.90;;;;;;4991320;28;20171;-68
2021/06/01 01:17:44;;;;;;;8.60;5.23;;;11.40;99.90;;;;;;4991073;28;20454;-67
2021/06/01 01:20:10;;;;;;;6.57;5.97;;;11.40;99.90;;;;;;4991036;28;20504;-68
2021/06/01 01:22:39;;;;;;;6.73;5.63;;;11.40;99.90;;;;;;4991260;28;20944;-67
2021/06/01 01:25:16;;;;;;;6.07;5.53;;;11.30;99.90;;;;;;4991394;28;20179;-68
2021/06/01 01:27:44;;;;;;;6.60;5.70;;;11.30;99.90;;;;;;4996265;28;20445;-68
2021/06/01 01:30:13;;;;;;;6.53;5.67;;;11.20;99.90;;;;;;5012976;28;20424;-67
2021/06/01 01:32:42;;;;;;;6.30;5.73;;;11.20;99.90;;;;;;5014660;28;20568;-67
2021/06/01 01:35:10;;;;;;;5.30;4.80;;;11.10;99.90;;;;;;5014783;28;20468;-67
2021/06/01 01:37:37;;;;;;;6.03;5.40;;;11.10;99.90;;;;;;5014815;28;20461;-68
2021/06/01 01:40:07;;;;;;;5.73;5.33;;;11.20;99.90;;;;;;5014346;28;20413;-68
2021/06/01 01:42:42;;;;;;;7.40;6.00;;;11.20;99.90;;;;;;5014291;28;20409;-68
2021/06/01 01:45:20;;;;;;;5.77;5.33;;;11.10;99.90;;;;;;5014610;28;20778;-68
2021/06/01 01:50:41;;;;;;;6.13;5.47;;;11.00;99.90;;;;;;5014362;28;20456;-68
2021/06/01 01:53:12;;;;;;;6.63;5.50;;;11.00;99.90;;;;;;5014374;28;20410;-68
2021/06/01 01:55:39;;;;;;;5.40;5.00;;;10.90;99.90;;;;;;5001239;28;20419;-68
2021/06/01 01:58:04;;;;;;;7.50;6.80;;;10.90;99.90;;;;;;4994445;28;20839;-68
2021/06/01 02:00:32;;;;;;;6.17;5.57;;;10.90;99.90;;;;;;4993039;28;20480;-68
2021/06/01 02:02:58;;;;;;;7.60;5.97;;;10.90;99.90;;;;;;4994672;28;20250;-68
2021/06/01 02:05:24;;;;;;;6.40;5.80;;;10.80;99.90;;;;;;4994602;28;20948;-68
2021/06/01 02:07:50;;;;;;;9.80;6.40;;;10.80;99.90;;;;;;4994277;28;20430;-68
2021/06/01 02:10:16;;;;;;;6.60;6.10;;;10.80;99.90;;;;;;4994128;28;20497;-68
2021/06/01 02:12:42;;;;;;;6.23;5.63;;;10.80;99.90;;;;;;4994332;28;20944;-68
2021/06/01 02:15:09;;;;;;;5.63;5.23;;;10.80;99.90;;;;;;4994268;28;20646;-68
2021/06/01 02:17:35;;;;;;;6.83;6.07;;;10.80;99.90;;;;;;4994645;28;20195;-68
2021/06/01 02:20:01;;;;;;;7.60;5.80;;;10.80;99.90;;;;;;4994107;28;20426;-68
2021/06/01 02:25:16;;;;;;;6.90;5.90;;;10.70;99.90;;;;;;4994337;28;20473;-68
2021/06/01 02:28:01;;;;;;;5.23;4.83;;;10.60;99.90;;;;;;4999282;28;20461;-68
2021/06/01 02:30:41;;;;;;;6.30;5.80;;;10.50;99.90;;;;;;5013089;28;20460;-68
2021/06/01 02:33:08;;;;;;;5.93;5.33;;;10.50;99.90;;;;;;5013696;28;20811;-68
2021/06/01 02:35:38;;;;;;;6.23;5.60;;;10.50;99.90;;;;;;5030294;28;20428;-68
2021/06/01 02:38:06;;;;;;;5.90;5.50;;;10.40;99.90;;;;;;5033216;28;20527;-68
2021/06/01 02:40:32;;;;;;;6.57;5.80;;;10.50;99.90;;;;;;5032949;28;20423;-68
2021/06/01 02:43:02;;;;;;;5.80;5.30;;;10.50;99.90;;;;;;5032740;28;20420;-68
2021/06/01 02:45:28;;;;;;;5.70;5.20;;;10.50;99.90;;;;;;5033066;28;20766;-68
2021/06/01 02:47:54;;;;;;;8.47;6.77;;;10.50;99.90;;;;;;5033222;28;20984;-68
2021/06/01 02:50:21;;;;;;;6.90;6.27;;;10.40;99.90;;;;;;5032721;28;20491;-68
2021/06/01 02:52:48;;;;;;;6.70;6.10;;;10.40;99.90;;;;;;5032973;28;20877;-68
2021/06/01 02:55:16;;;;;;;5.70;5.20;;;10.40;99.90;;;;;;5033026;28;20423;-68
2021/06/01 02:57:43;;;;;;;9.53;7.10;;;10.30;99.90;;;;;;5023404;28;20472;-68
2021/06/01 03:00:11;;;;;;;6.20;5.60;;;10.30;99.90;;;;;;5011424;28;20472;-68
2021/06/01 03:02:37;;;;;;;6.67;5.97;;;10.30;99.90;;;;;;5013133;28;20768;-68
2021/06/01 03:05:03;;;;;;;6.40;5.90;;;10.30;99.90;;;;;;5012897;28;20464;-68
2021/06/01 03:07:29;;;;;;;6.47;5.87;;;10.20;99.90;;;;;;5012935;28;20190;-68
2021/06/01 03:09:54;;;;;;;6.47;5.80;;;10.10;99.90;;;;;;5012783;28;20776;-68
2021/06/01 03:13:03;;;;;;;6.60;6.10;;;10.00;99.90;;;;;;5012875;28;20297;-68
2021/06/01 03:15:09;;;;;;;7.57;5.93;;;10.00;99.90;;;;;;5007393;28;20190;-68
2021/06/01 03:17:35;;;;;;;17.83;6.33;;;10.00;99.90;;;;;;5012882;28;20528;-68
2021/06/01 03:20:01;;;;;;;5.97;5.47;;;10.00;99.90;;;;;;5012476;28;20970;-68
2021/06/01 03:22:27;;;;;;;7.10;6.50;;;10.10;99.90;;;;;;5012637;28;20179;-68
2021/06/01 03:24:52;;;;;;;7.30;6.60;;;10.10;99.90;;;;;;5012460;28;20912;-68
2021/06/01 03:27:18;;;;;;;6.77;5.70;;;10.00;99.90;;;;;;5010396;28;20245;-68
2021/06/01 03:29:43;;;;;;;6.10;5.53;;;10.00;99.90;;;;;;4993189;28;20677;-68
2021/06/01 03:32:09;;;;;;;7.40;6.20;;;10.00;99.90;;;;;;4993482;28;20211;-68
2021/06/01 03:34:34;;;;;;;7.33;6.57;;;10.00;99.90;;;;;;4992986;28;20263;-68
2021/06/01 03:37:00;;;;;;;8.17;7.33;;;9.90;99.90;;;;;;4992705;28;20199;-68
2021/06/01 03:39:28;;;;;;;8.87;6.43;;;9.90;99.90;;;;;;4992453;28;20250;-68
2021/06/01 03:41:53;;;;;;;5.90;5.30;;;9.90;99.90;;;;;;4992715;28;20171;-68
2021/06/01 03:44:19;;;;;;;6.90;6.30;;;9.90;99.90;;;;;;4992707;28;20941;-68
2021/06/01 03:46:44;;;;;;;6.10;5.50;;;10.00;99.90;;;;;;4992584;28;20215;-68
2021/06/01 03:49:10;;;;;;;6.10;5.40;;;10.00;99.90;;;;;;4992284;28;20176;-68
2021/06/01 03:51:36;;;;;;;7.80;7.00;;;10.10;99.90;;;;;;4992371;28;20280;-68
2021/06/01 03:54:02;;;;;;;6.03;5.53;;;10.20;99.90;;;;;;4991481;28;20186;-68
2021/06/01 03:56:28;;;;;;;5.37;4.97;;;10.20;99.90;;;;;;5011848;28;20587;-68
2021/06/01 03:58:53;;;;;;;7.83;6.80;;;10.30;99.90;;;;;;5011695;28;20421;-68
2021/06/01 04:01:19;;;;;;;6.20;5.40;;;10.30;99.90;;;;;;5011967;28;20458;-68
2021/06/01 04:03:45;;;;;;;6.63;5.93;;;10.50;99.90;;;;;;5011930;28;20171;-68
2021/06/01 04:06:11;;;;;;;6.90;5.67;;;10.60;99.90;;;;;;5011748;28;20551;-68
2021/06/01 04:08:38;;;;;;;6.40;5.90;;;10.70;99.90;;;;;;5011560;28;20935;-69
2021/06/01 04:11:04;;;;;;;6.57;5.97;;;10.70;99.90;;;;;;5011696;28;20469;-69
2021/06/01 04:13:30;;;;;;;6.40;5.90;;;10.80;99.90;;;;;;5011617;28;20418;-68
2021/06/01 04:15:55;;;;;;;7.03;5.93;;;10.90;99.90;;;;;;5011676;28;20167;-69
2021/06/01 04:18:21;;;;;;;5.17;4.77;;;10.90;99.90;;;;;;5011585;28;20191;-68
2021/06/01 04:20:47;;;;;;;7.77;6.33;;;10.90;99.90;;;;;;5011251;28;20171;-68
2021/06/01 04:23:13;;;;;;;6.07;5.57;;;10.90;99.90;;;;;;5011512;28;20175;-68
2021/06/01 04:25:39;;;;;;;7.57;6.77;;;11.10;99.90;;;;;;5011578;28;20417;-68
2021/06/01 04:28:05;;;;;;;9.97;6.03;;;11.20;99.90;;;;;;5011645;28;20194;-68
2021/06/01 04:30:30;;;;;;;7.27;6.60;;;11.40;99.90;;;;;;5011071;28;20453;-68
2021/06/01 04:32:56;;;;;;;11.17;5.93;;;11.50;99.90;;;;;;5011490;28;20778;-68
2021/06/01 04:35:22;;;;;;;9.90;6.80;;;11.50;99.90;;;;;;5011255;28;20202;-68
2021/06/01 04:37:48;;;;;;;7.40;6.70;;;11.70;99.90;;;;;;5011184;28;20691;-68
2021/06/01 04:40:15;;;;;;;6.00;5.60;;;11.80;99.90;;;;;;5010992;28;20591;-69
2021/06/01 04:42:41;;;;;;;7.37;6.67;;;11.90;99.90;;;;;;5011187;28;20513;-67
2021/06/01 04:45:08;;;;;;;6.33;5.63;;;12.10;99.90;;;;;;5011311;28;20871;-69
2021/06/01 04:47:33;;;;;;;13.70;6.10;;;12.20;99.90;;;;;;5030885;28;21009;-68
2021/06/01 04:49:59;;;;;;;7.10;6.40;;;12.40;99.90;;;;;;5029523;28;20508;-68
2021/06/01 04:52:24;;;;;;;7.27;6.57;;;12.50;99.90;;;;;;5030743;28;20197;-68
2021/06/01 04:54:50;;;;;;;11.83;6.97;;;12.70;99.90;;;;;;5030776;28;20519;-68
2021/06/01 04:57:16;;;;;;;5.70;5.27;;;12.90;99.90;;;;;;5030618;28;20620;-68
2021/06/01 04:59:41;;;;;;;9.67;6.27;;;13.00;99.90;;;;;;5029918;28;20341;-69
2021/06/01 05:02:08;;;;;;;6.50;5.40;;;13.20;99.90;;;;;;5030806;28;20549;-68
2021/06/01 05:04:34;;;;;;;6.30;5.77;;;13.50;99.90;;;;;;5030326;28;20263;-68
2021/06/01 05:07:00;;;;;;;7.13;6.43;;;13.70;99.90;;;;;;5030611;28;20549;-67
2021/06/01 05:09:26;;;;;;;6.07;5.57;;;13.80;99.90;;;;;;5017231;28;20179;-68
2021/06/01 05:11:52;;;;;;;7.20;6.50;;;13.90;99.90;;;;;;5011027;28;20553;-65
2021/06/01 05:14:18;;;;;;;5.63;5.13;;;13.90;99.90;;;;;;5011255;28;20175;-67
2021/06/01 05:16:44;;;;;;;5.80;5.13;;;14.00;99.90;;;;;;5024916;28;20698;-67
2021/06/01 05:19:09;;;;;;;5.83;5.40;;;14.10;99.90;;;;;;5030310;28;20675;-67
2021/06/01 05:21:35;;;;;;;6.47;5.80;;;14.30;99.90;;;;;;5030822;28;20237;-67
2021/06/01 05:24:01;;;;;;;5.40;5.10;;;14.20;99.90;;;;;;5021666;28;20331;-65
2021/06/01 05:26:27;;;;;;;6.20;5.70;;;14.20;99.90;;;;;;5010888;28;20201;-67
2021/06/01 05:28:52;;;;;;;7.07;4.97;;;14.10;99.90;;;;;;4995781;28;20509;-65
2021/06/01 05:34:01;;;;;;;5.37;4.60;;;14.40;99.90;;;;;;4991281;28;20650;-65
2021/06/01 05:36:27;;;;;;;5.40;5.00;;;14.50;99.90;;;;;;4991078;28;20458;-66
2021/06/01 05:38:54;;;;;;;6.43;5.93;;;14.60;99.90;;;;;;4990830;28;20422;-66
2021/06/01 05:41:20;;;;;;;5.03;4.63;;;14.70;99.90;;;;;;4991325;28;20203;-68
2021/06/01 05:43:45;;;;;;;7.00;5.50;;;14.80;99.90;;;;;;4991071;28;20450;-69
2021/06/01 05:46:11;;;;;;;5.90;5.40;;;14.90;99.90;;;;;;4998399;28;20241;-69
2021/06/01 05:48:37;;;;;;;5.27;4.77;;;15.10;99.90;;;;;;5010443;28;20176;-70
2021/06/01 05:51:03;;;;;;;5.73;5.23;;;15.40;99.90;;;;;;5010330;28;20582;-68
2021/06/01 05:53:29;;;;;;;5.83;5.03;;;15.80;99.90;;;;;;5010815;28;20316;-69
2021/06/01 05:55:55;;;;;;;5.60;5.10;;;16.00;99.90;;;;;;5010601;28;20907;-68
2021/06/01 05:58:22;;;;;;;10.30;9.30;;;16.20;99.90;;;;;;5010491;28;20199;-69
2021/06/01 06:00:48;;;;;;;5.50;5.10;;;16.40;99.90;;;;;;5010854;28;20414;-69
2021/06/01 06:03:17;;;;;;;6.23;4.53;;;16.70;99.90;;;;;;5010719;28;20421;-69
2021/06/01 06:05:43;;;;;;;4.93;4.50;;;16.90;99.90;;;;;;5010451;28;20429;-70
2021/06/01 06:08:11;;;;;;;5.53;4.53;;;17.10;99.20;;;;;;5010420;28;20958;-69
2021/06/01 06:10:38;;;;;;;4.73;4.43;;;17.20;99.30;;;;;;5010174;28;20468;-69
2021/06/01 06:13:04;;;;;;;5.40;4.90;;;17.50;98.40;;;;;;5010423;28;20418;-69
2021/06/01 06:15:30;;;;;;;5.50;4.33;;;17.60;98.40;;;;;;5010300;28;20413;-68
2021/06/01 06:18:03;;;;;;;4.40;4.10;;;17.60;97.60;;;;;;5007513;28;20561;-69
2021/06/01 06:20:30;;;;;;;8.07;4.70;;;17.80;97.00;;;;;;5010704;28;20484;-68
2021/06/01 06:22:56;;;;;;;4.53;4.20;;;17.90;96.40;;;;;;5013857;28;20425;-69
2021/06/01 06:25:21;;;;;;;4.90;4.03;;;18.10;96.10;;;;;;5014189;28;20838;-70
2021/06/01 06:27:47;;;;;;;6.47;4.87;;;18.40;96.00;;;;;;5007868;28;20241;-69
2021/06/01 06:30:13;;;;;;;6.13;5.63;;;18.60;95.50;;;;;;4992424;28;20182;-69
2021/06/01 06:32:39;;;;;;;6.00;4.67;;;18.70;95.20;;;;;;5072476;23;20283;-74
2021/06/01 06:35:05;;;;;;;4.23;3.90;;;18.50;95.10;;;;;;5053314;28;20420;-71
2021/06/01 06:37:31;;;;;;;4.53;4.23;;;18.60;95.00;;;;;;5049960;28;20268;-71
2021/06/01 06:39:57;;;;;;;8.53;5.07;;;18.30;93.90;;;;;;5052368;28;20852;-71
2021/06/01 06:42:23;;;;;;;4.80;4.30;;;18.30;94.10;;;;;;5046128;28;20202;-71
2021/06/01 06:44:53;;;;;;;4.70;4.40;;;18.20;93.50;;;;;;5032799;28;20427;-71
2021/06/01 06:49:46;;;;;;;4.60;4.30;;;18.50;92.60;;;;;;5032157;28;20997;-72
2021/06/01 06:52:12;;;;;;;3.97;3.60;;;18.70;92.00;;;;;;5032244;28;20469;-71
2021/06/01 06:54:38;;;;;;;5.40;5.00;;;18.80;91.10;;;;;;5031758;28;20417;-71
2021/06/01 06:57:05;;;;;;;3.97;3.67;;;18.40;91.30;;;;;;5030606;28;20567;-73
2021/06/01 06:59:31;;;;;;;7.20;4.33;;;18.20;91.60;;;;;;5026578;28;20424;-72
2021/06/01 07:01:57;;;;;;;5.93;4.60;;;18.40;92.00;;;;;;5027641;28;21310;-72
2021/06/01 07:04:24;;;;;;;4.47;4.07;;;18.30;91.50;;;;;;5032648;28;20174;-74
2021/06/01 07:06:49;;;;;;;5.60;3.80;;;18.50;91.40;;;;;;5032636;28;20170;-71
2021/06/01 07:09:15;;;;;;;4.80;4.20;;;18.90;90.90;;;;;;5031701;28;20420;-72
2021/06/01 07:11:42;;;;;;;4.20;3.87;;;19.10;89.70;;;;;;5032184;28;20196;-72
2021/06/01 07:14:11;;;;;;;4.80;4.40;;;18.90;90.90;;;;;;5031567;28;20445;-72
2021/06/01 07:16:38;;;;;;;5.50;4.10;;;19.00;89.90;;;;;;5031656;28;20457;-72
2021/06/01 07:19:04;;;;;;;5.50;4.13;;;18.90;90.20;;;;;;5031860;28;20499;-72
2021/06/01 07:21:31;;;;;;;5.33;4.13;;;19.00;88.40;;;;;;5028082;28;20508;-72
2021/06/01 07:23:57;;;;;;;4.60;4.23;;;19.10;88.30;;;;;;5031993;28;20949;-72
2021/06/01 07:26:23;;;;;;;4.33;4.03;;;19.20;86.00;;;;;;5031921;28;20424;-71
2021/06/01 07:28:48;;;;;;;4.70;4.30;;;19.20;85.10;;;;;;5031466;28;20854;-72
2021/06/01 07:31:15;;;;;;;4.80;4.37;;;19.50;86.20;;;;;;5031743;28;21008;-74
2021/06/01 07:33:41;;;;;;;3.90;3.70;;;19.70;82.60;;;;;;5031680;28;20268;-71
2021/06/01 07:36:07;;;;;;;4.53;3.90;;;19.70;82.20;;;;;;5031691;28;20420;-72
2021/06/01 07:38:35;;;;;;;4.70;4.30;;;19.80;81.00;;;;;;5031689;28;20820;-75
2021/06/01 07:41:01;;;;;;;4.83;4.43;;;19.90;79.20;;;;;;5031475;28;20424;-72
2021/06/01 07:43:27;;;;;;;5.63;4.40;;;20.00;80.90;;;;;;5031677;28;20843;-73
2021/06/01 07:45:52;;;;;;;4.37;3.97;;;20.30;80.40;;;;;;5031675;28;20421;-73
2021/06/01 07:48:18;;;;;;;6.37;4.00;;;20.50;77.20;;;;;;5031570;28;20261;-73
2021/06/01 07:50:43;;;;;;;5.10;4.70;;;20.40;75.70;;;;;;5031176;28;20182;-72
2021/06/01 07:53:09;;;;;;;5.27;4.77;;;20.30;76.30;;;;;;5031261;28;20186;-72
2021/06/01 07:55:34;;;;;;;7.90;4.73;;;20.50;77.00;;;;;;5031470;28;20543;-72
2021/06/01 07:58:00;;;;;;;4.77;4.37;;;20.70;76.60;;;;;;5031432;28;20249;-72
2021/06/01 08:00:27;;;;;;;4.73;4.33;;;20.70;74.70;;;;;;5030933;28;20182;-73
2021/06/01 08:02:53;;;;;;;5.87;4.60;;;20.80;74.00;;;;;;5027917;28;20198;-72
2021/06/01 08:05:20;;;;;;;4.47;4.07;;;20.70;75.00;;;;;;5027387;28;20498;-72
2021/06/01 08:07:47;;;;;;;5.33;4.93;;;21.10;72.50;;;;;;5028247;28;20564;-73
2021/06/01 08:10:15;;;;;;;4.50;4.20;;;21.20;71.60;;;;;;5027794;28;20417;-72
2021/06/01 08:12:41;;;;;;;4.77;4.37;;;21.00;72.10;;;;;;5028147;28;20449;-72
2021/06/01 08:15:08;;;;;;;5.07;4.60;;;21.00;72.40;;;;;;5028185;28;20952;-72
2021/06/01 08:17:34;;;;;;;4.07;3.77;;;21.10;72.10;;;;;;5028230;28;20566;-72
2021/06/01 08:20:10;;;;;;;8.00;4.20;;;21.10;71.80;;;;;;5026205;28;20523;-73
2021/06/01 08:22:37;;;;;;;5.07;4.57;;;21.10;70.40;;;;;;5026733;28;20510;-74
2021/06/01 08:25:03;;;;;;;4.23;3.93;;;21.20;72.20;;;;;;5028163;28;20762;-73
2021/06/01 08:27:30;;;;;;;4.50;4.20;;;21.50;70.80;;;;;;5027674;28;20416;-73
2021/06/01 08:29:56;;;;;;;4.10;3.70;;;21.70;70.90;;;;;;5027919;28;20428;-72
2021/06/01 08:32:23;;;;;;;4.77;4.37;;;21.60;70.10;;;;;;5027740;28;20878;-73
2021/06/01 08:34:48;;;;;;;3.83;3.53;;;21.80;69.40;;;;;;5027903;28;20427;-71
2021/06/01 08:37:14;;;;;;;4.73;4.23;;;22.00;70.30;;;;;;5027545;28;20417;-73
2021/06/01 08:39:39;;;;;;;3.87;3.57;;;22.20;69.00;;;;;;5026852;28;20174;-72
2021/06/01 08:42:06;;;;;;;4.13;3.83;;;22.30;67.70;;;;;;5027887;28;20256;-73
2021/06/01 08:44:32;;;;;;;3.83;3.60;;;22.70;67.80;;;;;;5027871;28;20541;-73
2021/06/01 08:46:59;;;;;;;6.87;3.90;;;22.50;59.50;;;;;;5027926;28;20420;-72
2021/06/01 08:49:25;;;;;;;3.73;3.23;;;22.30;58.50;;;;;;5027538;28;20185;-73
2021/06/01 08:51:51;;;;;;;3.87;3.57;;;22.20;58.10;;;;;;5027108;28;20949;-72
2021/06/01 08:54:17;;;;;;;4.43;3.50;;;22.10;58.10;;;;;;5027649;28;20753;-73
2021/06/01 08:56:44;;;;;;;3.93;3.60;;;22.10;59.90;;;;;;5027821;28;20172;-74
2021/06/01 08:59:11;;;;;;;3.53;3.23;;;22.20;58.80;;;;;;5027286;28;20800;-73
2021/06/01 09:01:36;;;;;;;3.90;3.37;;;22.50;59.40;;;;;;5027606;28;20425;-72
2021/06/01 09:04:08;;;;;;;6.57;4.30;;;22.80;57.70;;;;;;5027360;28;20451;-72
2021/06/01 09:11:54;;;;;;;5.10;3.83;;;23.00;56.80;;;;;;5027664;28;20941;-73
2021/06/01 09:22:30;;;;;;;3.93;3.73;;;23.40;53.90;;;;;;5027616;28;20957;-73
2021/06/01 09:25:08;;;;;;;5.90;3.40;;;23.50;53.50;;;;;;5027501;28;20424;-72
2021/06/01 09:27:45;;;;;;;5.03;3.10;;;23.60;53.60;;;;;;5027708;28;20904;-73
2021/06/01 09:30:31;;;;;;;3.43;3.20;;;23.60;53.30;;;;;;5026740;28;20432;-74
2021/06/01 09:32:57;;;;;;;3.40;3.10;;;23.90;53.30;;;;;;5028708;28;20492;-73
2021/06/01 09:35:56;;;;;;;3.93;3.43;;;23.90;51.60;;;;;;5029346;28;20933;-74
2021/06/01 09:38:30;;;;;;;3.40;3.20;;;23.90;51.30;;;;;;5026948;28;20181;-74
2021/06/01 09:41:08;;;;;;;3.17;2.97;;;23.90;51.50;;;;;;5025087;28;20471;-74
2021/06/01 09:43:52;;;;;;;5.37;3.00;;;24.00;51.90;;;;;;5030367;28;20536;-74
2021/06/01 09:46:28;;;;;;;5.20;3.70;;;24.00;51.20;;;;;;5030563;28;20425;-74
2021/06/01 09:49:13;;;;;;;5.57;4.13;;;24.10;51.60;;;;;;5030252;28;20423;-74
2021/06/01 09:51:46;;;;;;;3.70;3.50;;;24.30;50.50;;;;;;5033568;28;20452;-73
2021/06/01 09:54:37;;;;;;;3.43;2.97;;;24.70;49.90;;;;;;5034072;28;20506;-73
2021/06/01 09:57:15;;;;;;;4.33;3.27;;;24.80;49.20;;;;;;5034109;28;20417;-73
2021/06/01 09:59:40;;;;;;;4.23;3.20;;;25.00;48.60;;;;;;5033796;28;20440;-73
2021/06/01 10:02:33;;;;;;;5.07;3.70;;;24.60;49.20;;;;;;5049348;28;20515;-73
2021/06/01 10:05:13;;;;;;;4.53;2.63;;;25.00;49.90;;;;;;5033922;28;20181;-74
2021/06/01 10:07:40;;;;;;;3.67;3.47;;;26.00;48.00;;;;;;5048880;28;20440;-73
2021/06/01 10:10:17;;;;;;;5.00;3.50;;;26.80;47.00;;;;;;5033392;28;20428;-74
2021/06/01 10:12:51;;;;;;;3.90;3.60;;;26.50;45.00;;;;;;5032254;28;20458;-73
2021/06/01 10:15:19;;;;;;;3.43;3.20;;;26.40;45.70;;;;;;5033523;28;20438;-73
2021/06/01 10:17:45;;;;;;;4.20;3.47;;;27.20;44.60;;;;;;5033872;28;20417;-73
2021/06/01 10:20:12;;;;;;;3.80;3.53;;;27.60;44.20;;;;;;5033416;28;20406;-73
2021/06/01 10:22:38;;;;;;;3.70;3.40;;;28.10;43.00;;;;;;5033536;28;20194;-73
2021/06/01 10:25:05;;;;;;;3.70;3.50;;;28.40;43.70;;;;;;5033427;28;20417;-74
2021/06/01 10:27:31;;;;;;;4.00;3.07;;;28.00;42.70;;;;;;5033288;28;20925;-73
2021/06/01 10:29:57;;;;;;;4.77;4.00;;;27.30;43.60;;;;;;5032925;28;20418;-73
2021/06/01 10:32:23;;;;;;;3.53;3.23;;;27.70;42.40;;;;;;5048332;28;20753;-75
2021/06/01 10:34:51;;;;;;;3.97;3.57;;;28.10;42.30;;;;;;5033266;28;20192;-73
2021/06/01 10:51:57;;;;;;;3.60;3.40;;;30.50;38.90;;;;;;5030085;28;20464;-73
2021/06/01 10:54:42;;;;;;;4.83;3.23;;;32.10;37.40;;;;;;5021611;28;20829;-74
2021/06/01 10:57:09;;;;;;;3.50;3.20;;;32.40;36.40;;;;;;5012077;28;20461;-74
2021/06/01 10:59:52;;;;;;;3.63;3.33;;;31.70;35.90;;;;;;5018310;28;20456;-73
2021/06/01 11:02:19;;;;;;;4.63;3.57;;;31.40;36.10;;;;;;5028635;28;20451;-74
2021/06/01 11:05:08;;;;;;;3.80;3.50;;;32.30;36.40;;;;;;5029445;28;20433;-74
2021/06/01 11:08:00;;;;;;;3.50;3.30;;;32.60;34.90;;;;;;5029472;28;20431;-73
2021/06/01 11:10:42;;;;;;;2.97;2.77;;;31.90;33.70;;;;;;5029188;28;20421;-73
2021/06/01 11:13:18;;;;;;;3.57;3.27;;;30.90;33.50;;;;;;5029291;28;20465;-74
2021/06/01 11:15:53;;;;;;;3.70;3.50;;;31.10;34.90;;;;;;5029326;28;20428;-73
2021/06/01 11:18:21;;;;;;;3.50;3.20;;;30.50;34.60;;;;;;5027866;28;20517;-73
2021/06/01 11:21:11;;;;;;;3.97;3.77;;;30.00;35.00;;;;;;5029083;28;20428;-73
2021/06/01 11:24:21;;;;;;;2.80;2.70;;;30.60;35.70;;;;;;5029269;28;20456;-73
2021/06/01 11:35:30;;;;;;;3.80;3.50;;;30.20;36.10;;;;;;5029330;28;20427;-72
2021/06/01 11:38:02;;;;;;;4.40;4.10;;;31.80;36.00;;;;;;5029059;28;20508;-73
2021/06/01 11:43:16;;;;;;;4.07;3.80;;;32.40;34.40;;;;;;5029012;28;21077;-74
2021/06/01 11:51:16;;;;;;;3.67;3.37;;;33.20;33.00;;;;;;5028608;28;20536;-73
2021/06/01 11:53:54;;;;;;;3.33;3.13;;;32.30;33.00;;;;;;5028496;28;21044;-73
2021/06/01 12:02:23;;;;;;;4.03;3.77;;;32.70;33.90;;;;;;5028720;28;20508;-73
2021/06/01 12:18:41;;;;;;;3.70;3.40;;;35.00;36.00;;;;;;5028498;28;20571;-73
2021/06/01 12:21:13;;;;;;;4.70;4.30;;;33.90;35.70;;;;;;5028157;28;20946;-75
2021/06/01 12:23:42;;;;;;;3.90;3.60;;;33.60;36.70;;;;;;5028069;28;20519;-73
2021/06/01 12:26:12;;;;;;;3.63;3.40;;;34.90;35.80;;;;;;5028561;28;20556;-75
2021/06/01 12:32:00;;;;;;;3.87;3.57;;;34.90;36.20;;;;;;5028043;28;20474;-74
2021/06/01 12:34:56;;;;;;;3.47;3.13;;;36.20;36.40;;;;;;5051161;23;20500;-67
2021/06/01 12:43:20;;;;;;;5.20;3.80;;;34.60;37.80;;;;;;5028136;28;20814;-67
2021/06/01 12:46:07;;;;;;;4.33;4.03;;;35.40;37.60;;;;;;5027561;28;20445;-68
2021/06/01 13:23:17;;;;;;;5.30;4.10;;;33.00;36.70;;;;;;5007091;28;20437;-67
2021/06/01 13:31:37;;;;;;;3.40;3.20;;;32.10;38.30;;;;;;5036554;28;20551;-67
2021/06/01 13:40:00;;;;;;;4.17;3.77;;;29.40;39.90;;;;;;4985903;28;20948;-67
2021/06/01 13:51:23;;;;;;;3.70;3.40;;;27.60;41.50;;;;;;5030152;28;20421;-67
2021/06/01 13:56:01;;;;;;;4.70;3.60;;;26.50;36.70;;;;;;5010593;28;20421;-67
2021/06/01 14:01:11;;;;;;;4.50;4.20;;;25.50;38.80;;;;;;5042320;28;20437;-66
2021/06/01 14:31:26;;;;;;;3.70;3.50;;;25.00;39.20;;;;;;5013464;28;20545;-68
2021/06/01 15:23:40;;;;;;;4.33;4.03;;;24.20;42.50;;;;;;5032872;28;20499;-68
2021/06/01 15:47:50;;;;;;;4.17;3.70;;;23.80;42.50;;;;;;5032137;28;20424;-68
2021/06/01 16:33:37;;;;;;;7.20;4.30;;;23.00;43.00;;;;;;5031282;28;20472;-63
2021/06/01 16:44:19;;;;;;;3.93;3.63;;;22.80;43.10;;;;;;5030934;28;20476;-63
2021/06/01 17:03:34;;;;;;;3.00;2.80;;;22.50;43.70;;;;;;5030144;28;20498;-63
2021/06/01 17:06:07;;;;;;;6.27;3.40;;;22.50;43.50;;;;;;5030149;28;20842;-65
2021/06/01 17:11:20;;;;;;;3.10;2.80;;;22.40;43.80;;;;;;5030756;28;20468;-63
2021/06/01 17:13:57;;;;;;;4.57;3.47;;;22.40;43.80;;;;;;5030212;28;20892;-63
2021/06/01 17:16:54;;;;;;;4.57;3.83;;;22.30;43.90;;;;;;5030494;28;20424;-63
2021/06/01 17:35:19;;;;;;;3.53;3.03;;;22.10;44.50;;;;;;5030099;28;20466;-63
2021/06/01 17:37:45;;;;;;;4.97;3.57;;;22.10;44.40;;;;;;5028311;28;20424;-63
2021/06/01 17:40:14;;;;;;;3.63;3.20;;;22.10;44.20;;;;;;5029187;28;20429;-63
2021/06/01 17:42:48;;;;;;;3.97;3.57;;;22.00;44.30;;;;;;5026300;28;20876;-63
2021/06/01 17:45:15;;;;;;;15.87;3.90;;;22.00;44.20;;;;;;5027438;28;20443;-63
2021/06/01 17:47:53;;;;;;;5.90;3.07;;;21.90;44.50;;;;;;5028712;28;20417;-63
2021/06/01 17:50:21;;;;;;;3.60;3.33;;;21.90;44.80;;;;;;5028186;28;20433;-62
2021/06/01 17:52:52;;;;;;;5.40;3.40;;;21.80;45.00;;;;;;5029343;28;20943;-63
2021/06/01 17:55:21;;;;;;;3.93;3.63;;;21.80;44.60;;;;;;5028563;28;20833;-63
2021/06/01 17:57:48;;;;;;;3.13;2.80;;;21.80;44.60;;;;;;5029466;28;20481;-63
2021/06/01 18:00:14;;;;;;;3.27;3.07;;;21.70;44.90;;;;;;5029160;28;20958;-63
2021/06/01 18:02:40;;;;;;;4.67;3.50;;;21.80;45.20;;;;;;5027973;28;20813;-64
2021/06/01 18:05:07;;;;;;;7.23;4.23;;;21.70;45.30;;;;;;5029541;28;20480;-63
2021/06/01 18:07:42;;;;;;;3.93;3.63;;;21.70;45.50;;;;;;5029413;28;20842;-63
2021/06/01 19:02:21;;;;;;;4.77;3.90;;;20.60;50.20;;;;;;5032648;28;20436;-63
2021/06/01 19:24:12;;;;;;;4.20;3.67;;;20.10;50.90;;;;;;5028155;28;20440;-63
2021/06/01 19:51:10;;;;;;;8.80;7.90;;;19.40;52.90;;;;;;5031747;28;20605;-63
2021/06/01 19:53:37;;;;;;;7.10;6.47;;;19.30;53.70;;;;;;5028346;28;20532;-65
2021/06/01 19:56:05;;;;;;;6.40;6.00;;;19.20;54.70;;;;;;5031550;28;20420;-64
2021/06/01 19:58:34;;;;;;;6.57;6.07;;;19.20;53.50;;;;;;5031783;28;20487;-63
2021/06/01 20:01:06;;;;;;;5.80;5.40;;;19.20;54.10;;;;;;5031263;28;20429;-64
2021/06/01 20:03:33;;;;;;;5.77;5.37;;;19.10;53.60;;;;;;5028159;28;20992;-65